createdAt,value
2022-09-28T00:00:24.044Z,0.60
2022-09-28T00:02:26.492Z,2.15
2022-09-28T00:04:28.228Z,2.33
2022-09-28T00:06:30.868Z,0.80
2022-09-28T00:08:33.827Z,0.55
2022-09-28T00:10:35.441Z,0.90
2022-09-28T00:12:37.301Z,0.90
2022-09-28T00:14:40.503Z,1.30
2022-09-28T00:16:44.147Z,0.63
2022-09-28T00:18:46.322Z,0.45
2022-09-28T00:20:47.970Z,0.60
2022-09-28T00:22:49.654Z,2.15
2022-09-28T00:24:51.329Z,0.85
2022-09-28T00:26:55.505Z,3.40
2022-09-28T00:28:59.287Z,0.98
2022-09-28T00:31:01.081Z,1.27
2022-09-28T00:33:02.688Z,1.00
2022-09-28T00:35:04.656Z,0.52
2022-09-28T00:37:08.806Z,0.60
2022-09-28T00:39:10.420Z,0.95
2022-09-28T00:41:12.347Z,1.55
2022-09-28T00:43:20.836Z,1.00
2022-09-28T00:45:25.398Z,1.23
2022-09-28T00:47:33.864Z,4.13
2022-09-28T00:49:53.579Z,0.93
2022-09-28T00:51:55.500Z,1.38
2022-09-28T00:53:59.272Z,1.13
2022-09-28T00:56:09.100Z,0.50
2022-09-28T00:58:14.091Z,0.52
2022-09-28T01:00:16.272Z,4.50
2022-09-28T01:02:19.268Z,0.55
2022-09-28T01:04:25.000Z,0.80
2022-09-28T01:06:33.093Z,0.60
2022-09-28T01:08:36.032Z,2.63
2022-09-28T01:10:40.491Z,0.70
2022-09-28T01:12:42.097Z,2.17
2022-09-28T01:14:44.596Z,1.08
2022-09-28T01:17:14.767Z,0.98
2022-09-28T01:19:36.859Z,0.63
2022-09-28T01:22:08.924Z,0.60
2022-09-28T01:24:29.804Z,0.40
2022-09-28T01:26:44.440Z,0.45
2022-09-28T01:28:50.451Z,0.52
2022-09-28T01:31:10.703Z,0.68
2022-09-28T01:33:19.161Z,1.50
2022-09-28T01:35:36.068Z,2.15
2022-09-28T01:37:51.898Z,1.00
2022-09-28T01:39:55.812Z,1.30
2022-09-28T01:42:04.114Z,1.85
2022-09-28T01:44:08.659Z,0.85
2022-09-28T01:46:30.259Z,0.63
2022-09-28T01:48:54.125Z,0.60
2022-09-28T01:51:00.308Z,0.40
2022-09-28T01:53:24.972Z,0.60
2022-09-28T01:55:44.647Z,1.05
2022-09-28T01:57:52.702Z,0.50
2022-09-28T02:00:07.149Z,0.60
2022-09-28T02:02:18.505Z,0.68
2022-09-28T02:04:24.911Z,3.03
2022-09-28T02:06:33.057Z,0.80
2022-09-28T02:08:40.188Z,1.58
2022-09-28T02:10:52.348Z,1.20
2022-09-28T02:13:05.887Z,0.73
2022-09-28T02:15:35.135Z,1.08
2022-09-28T02:17:36.953Z,2.15
2022-09-28T02:19:39.930Z,0.38
2022-09-28T02:21:48.726Z,0.40
2022-09-28T02:24:02.650Z,0.75
2022-09-28T02:26:08.887Z,0.82
2022-09-28T02:28:13.286Z,0.70
2022-09-28T02:30:14.885Z,0.93
2022-09-28T02:32:19.591Z,0.50
2022-09-28T02:34:21.183Z,0.50
2022-09-28T02:36:24.764Z,0.63
2022-09-28T02:38:26.556Z,0.75
2022-09-28T02:40:37.714Z,1.70
2022-09-28T02:42:46.540Z,1.02
2022-09-28T02:45:06.675Z,0.52
2022-09-28T02:47:26.265Z,1.08
2022-09-28T02:49:40.466Z,0.75
2022-09-28T02:52:11.286Z,1.20
2022-09-28T02:55:00.873Z,4.85
2022-09-28T02:57:12.591Z,1.02
2022-09-28T02:59:39.831Z,0.40
2022-09-28T03:01:56.317Z,2.75
2022-09-28T03:04:25.991Z,0.40
2022-09-28T03:06:40.135Z,0.85
2022-09-28T03:09:00.135Z,1.23
2022-09-28T03:11:07.622Z,0.47
2022-09-28T03:13:09.725Z,0.93
2022-09-28T03:15:21.272Z,0.43
2022-09-28T03:17:22.884Z,0.60
2022-09-28T03:19:30.386Z,0.43
2022-09-28T03:21:31.964Z,0.80
2022-09-28T03:23:33.695Z,1.27
2022-09-28T03:25:35.289Z,0.50
2022-09-28T03:27:36.898Z,2.63
2022-09-28T03:29:39.354Z,5.07
2022-09-28T03:31:41.058Z,0.95
2022-09-28T03:33:42.704Z,2.00
2022-09-28T03:35:47.790Z,1.50
2022-09-28T03:37:49.383Z,2.42
2022-09-28T03:39:50.955Z,7.07
2022-09-28T03:41:52.536Z,4.10
2022-09-28T03:43:54.184Z,13.27
2022-09-28T03:45:58.814Z,22.65
2022-09-28T03:48:00.594Z,5.88
2022-09-28T03:50:02.338Z,10.10
2022-09-28T03:52:04.469Z,9.75
2022-09-28T03:54:06.176Z,4.75
2022-09-28T03:56:12.688Z,5.60
2022-09-28T03:58:14.407Z,3.20
2022-09-28T04:00:16.087Z,16.02
2022-09-28T04:02:17.817Z,5.32
2022-09-28T04:04:19.465Z,10.30
2022-09-28T04:06:21.164Z,9.60
2022-09-28T04:08:22.763Z,9.68
2022-09-28T04:10:27.486Z,6.45
2022-09-28T04:12:29.103Z,15.00
2022-09-28T04:14:30.692Z,5.63
2022-09-28T04:16:32.343Z,7.50
2022-09-28T04:18:35.119Z,13.20
2022-09-28T04:20:36.873Z,8.02
2022-09-28T04:22:38.503Z,8.93
2022-09-28T04:24:42.057Z,11.95
2022-09-28T04:26:43.687Z,8.52
2022-09-28T04:29:06.792Z,2.20
2022-09-28T04:31:14.860Z,5.93
2022-09-28T04:33:16.512Z,8.30
2022-09-28T04:35:18.215Z,11.63
2022-09-28T04:37:19.865Z,8.43
2022-09-28T04:39:21.494Z,11.80
2022-09-28T04:41:23.223Z,10.63
2022-09-28T04:43:24.825Z,8.88
2022-09-28T04:45:26.896Z,11.38
2022-09-28T04:47:30.429Z,10.15
2022-09-28T04:49:32.108Z,6.32
2022-09-28T04:51:33.744Z,12.68
2022-09-28T04:53:35.382Z,9.65
2022-09-28T04:55:36.972Z,7.10
2022-09-28T04:57:38.559Z,5.90
2022-09-28T04:59:40.164Z,6.47
2022-09-28T05:01:42.062Z,9.75
2022-09-28T05:03:43.953Z,4.50
2022-09-28T05:05:46.532Z,8.23
2022-09-28T05:07:48.128Z,6.70
2022-09-28T05:09:50.340Z,16.73
2022-09-28T05:11:55.001Z,4.43
2022-09-28T05:13:56.669Z,9.98
2022-09-28T05:16:04.439Z,8.23
2022-09-28T05:18:07.567Z,5.40
2022-09-28T05:20:09.535Z,8.00
2022-09-28T05:22:14.696Z,9.70
2022-09-28T05:24:16.315Z,13.52
2022-09-28T05:26:18.211Z,4.47
2022-09-28T05:28:25.890Z,7.07
2022-09-28T05:30:27.475Z,3.50
2022-09-28T05:32:29.083Z,11.20
2022-09-28T05:34:30.718Z,7.88
2022-09-28T05:36:32.564Z,9.88
2022-09-28T05:38:34.280Z,7.15
2022-09-28T05:40:35.961Z,5.20
2022-09-28T05:42:37.696Z,3.35
2022-09-28T05:44:39.283Z,3.15
2022-09-28T05:46:40.900Z,5.53
2022-09-28T05:48:42.570Z,4.00
2022-09-28T05:50:44.204Z,3.13
2022-09-28T05:52:46.693Z,2.70
2022-09-28T05:54:48.583Z,1.92
2022-09-28T05:56:50.160Z,4.18
2022-09-28T05:58:51.734Z,2.47
2022-09-28T06:00:57.284Z,3.20
2022-09-28T06:03:08.735Z,1.02
2022-09-28T06:05:11.008Z,9.10
2022-09-28T06:07:12.657Z,2.80
2022-09-28T06:09:14.256Z,1.42
2022-09-28T06:11:15.888Z,4.22
2022-09-28T06:13:17.491Z,3.83
2022-09-28T06:15:19.234Z,1.42
2022-09-28T06:17:20.859Z,2.67
2022-09-28T06:19:22.495Z,3.25
2022-09-28T06:21:24.128Z,3.00
2022-09-28T06:23:25.733Z,3.47
2022-09-28T06:25:27.636Z,3.15
2022-09-28T06:27:29.324Z,0.95
2022-09-28T06:29:31.242Z,1.15
2022-09-28T06:31:32.887Z,1.95
2022-09-28T06:33:35.596Z,3.63
2022-09-28T06:35:37.245Z,1.38
2022-09-28T06:37:39.075Z,1.83
2022-09-28T06:39:40.684Z,1.15
2022-09-28T06:41:42.289Z,2.60
2022-09-28T06:43:44.727Z,1.55
2022-09-28T06:45:52.085Z,1.98
2022-09-28T06:47:58.605Z,1.20
2022-09-28T06:50:00.470Z,3.80
2022-09-28T06:52:02.088Z,4.43
2022-09-28T06:54:04.061Z,1.80
2022-09-28T06:56:09.159Z,1.85
2022-09-28T06:58:12.296Z,2.25
2022-09-28T07:00:14.815Z,1.85
2022-09-28T07:02:16.573Z,3.00
2022-09-28T07:04:18.351Z,1.95
2022-09-28T07:06:21.025Z,1.05
2022-09-28T07:08:24.707Z,1.10
2022-09-28T07:10:28.095Z,1.40
2022-09-28T07:12:32.163Z,1.35
2022-09-28T07:14:46.988Z,1.88
2022-09-28T07:17:11.474Z,0.55
2022-09-28T07:19:11.190Z,1.50
2022-09-28T07:21:24.610Z,1.95
2022-09-28T07:23:30.478Z,0.98
2022-09-28T07:25:36.908Z,1.13
2022-09-28T07:27:39.472Z,2.38
2022-09-28T07:29:41.080Z,1.38
2022-09-28T07:31:42.703Z,1.02
2022-09-28T07:33:44.744Z,1.02
2022-09-28T07:35:55.120Z,1.90
2022-09-28T07:38:10.336Z,1.23
2022-09-28T07:40:31.329Z,1.08
2022-09-28T07:42:33.088Z,1.13
2022-09-28T07:44:36.535Z,1.25
2022-09-28T07:46:38.208Z,1.65
2022-09-28T07:48:41.301Z,1.35
2022-09-28T07:51:03.637Z,0.60
2022-09-28T07:53:05.230Z,0.40
2022-09-28T07:55:07.687Z,1.20
2022-09-28T07:57:09.308Z,1.40
2022-09-28T07:59:11.225Z,0.75
2022-09-28T08:01:15.458Z,1.10
2022-09-28T08:03:19.009Z,1.20
2022-09-28T08:05:20.641Z,1.08
2022-09-28T08:07:24.184Z,2.15
2022-09-28T08:09:25.988Z,1.17
2022-09-28T08:11:27.638Z,0.68
2022-09-28T08:13:29.534Z,1.88
2022-09-28T08:15:38.171Z,1.00
2022-09-28T08:17:39.801Z,1.08
2022-09-28T08:20:00.152Z,0.70
2022-09-28T08:22:01.777Z,0.90
2022-09-28T08:24:03.545Z,1.05
2022-09-28T08:26:05.554Z,1.15
2022-09-28T08:28:07.411Z,1.45
2022-09-28T08:30:09.633Z,0.50
2022-09-28T08:32:11.344Z,0.65
2022-09-28T08:34:13.594Z,0.80
2022-09-28T08:36:15.456Z,2.00
2022-09-28T08:38:18.272Z,2.30
2022-09-28T08:40:25.339Z,1.70
2022-09-28T08:42:40.878Z,0.70
2022-09-28T08:44:49.152Z,1.42
2022-09-28T08:47:30.387Z,0.75
2022-09-28T08:49:47.376Z,1.42
2022-09-28T08:52:05.689Z,0.93
2022-09-28T08:54:33.304Z,0.77
2022-09-28T08:56:40.932Z,0.80
2022-09-28T08:58:45.772Z,1.42
2022-09-28T09:00:50.284Z,2.03
2022-09-28T09:02:51.999Z,0.63
2022-09-28T09:04:54.281Z,0.88
2022-09-28T09:07:23.096Z,0.50
2022-09-28T09:09:48.550Z,1.45
2022-09-28T09:12:08.155Z,0.70
2022-09-28T09:14:21.679Z,0.98
2022-09-28T09:17:00.276Z,1.23
2022-09-28T09:19:19.618Z,0.70
2022-09-28T09:21:47.463Z,1.20
2022-09-28T09:23:56.897Z,1.92
2022-09-28T09:26:14.211Z,1.65
2022-09-28T09:28:35.251Z,0.68
2022-09-28T09:30:56.732Z,0.60
2022-09-28T09:33:32.442Z,0.98
2022-09-28T09:35:39.992Z,0.80
2022-09-28T09:38:00.115Z,0.68
2022-09-28T09:40:20.134Z,0.88
2022-09-28T09:42:37.469Z,1.25
2022-09-28T09:45:02.838Z,1.33
2022-09-28T09:47:26.257Z,1.10
2022-09-28T09:49:38.677Z,0.60
2022-09-28T09:51:49.302Z,0.57
2022-09-28T09:54:03.862Z,1.10
2022-09-28T09:56:16.535Z,0.60
2022-09-28T09:58:24.092Z,1.40
2022-09-28T10:00:25.854Z,1.35
2022-09-28T10:02:34.693Z,0.70
2022-09-28T10:04:43.152Z,1.13
2022-09-28T10:06:47.133Z,1.10
2022-09-28T10:08:58.343Z,0.63
2022-09-28T10:11:24.930Z,0.60
2022-09-28T10:13:26.523Z,0.40
2022-09-28T10:15:30.889Z,1.08
2022-09-28T10:17:33.613Z,0.85
2022-09-28T10:19:36.546Z,0.70
2022-09-28T10:21:40.501Z,0.52
2022-09-28T10:23:43.479Z,0.55
2022-09-28T10:25:47.411Z,1.35
2022-09-28T10:27:52.381Z,0.70
2022-09-28T10:29:57.783Z,0.52
2022-09-28T10:31:59.449Z,0.73
2022-09-28T10:34:01.496Z,0.70
2022-09-28T10:36:06.691Z,1.00
2022-09-28T10:38:18.994Z,1.23
2022-09-28T10:40:47.132Z,0.93
2022-09-28T10:42:48.954Z,1.48
2022-09-28T10:44:54.966Z,0.55
2022-09-28T10:47:02.980Z,1.17
2022-09-28T10:49:17.311Z,0.80
2022-09-28T10:51:19.128Z,2.10
2022-09-28T10:53:21.260Z,1.10
2022-09-28T10:55:25.642Z,0.65
2022-09-28T10:57:36.686Z,1.02
2022-09-28T11:01:41.614Z,2.30
2022-09-28T11:03:57.008Z,0.65
2022-09-28T11:06:07.409Z,0.50
2022-09-28T11:08:27.668Z,0.90
2022-09-28T11:10:32.818Z,1.10
2022-09-28T11:12:43.764Z,1.20
2022-09-28T11:14:46.651Z,0.93
2022-09-28T11:16:48.375Z,0.73
2022-09-28T11:18:50.816Z,1.30
2022-09-28T11:20:52.559Z,1.63
2022-09-28T11:22:59.313Z,1.02
2022-09-28T11:25:24.360Z,2.83
2022-09-28T11:27:27.387Z,0.60
2022-09-28T11:29:42.967Z,0.85
2022-09-28T11:31:44.614Z,0.50
2022-09-28T11:33:47.369Z,1.50
2022-09-28T11:36:14.578Z,1.35
2022-09-28T11:38:45.999Z,0.80
2022-09-28T11:41:20.404Z,0.70
2022-09-28T11:43:24.787Z,1.10
2022-09-28T11:45:48.519Z,0.73
2022-09-28T11:48:02.576Z,1.20
2022-09-28T11:50:23.688Z,0.80
2022-09-28T11:52:43.560Z,1.58
2022-09-28T11:54:52.101Z,0.70
2022-09-28T11:56:53.938Z,0.60
2022-09-28T11:59:05.759Z,0.80
2022-09-28T12:01:25.994Z,0.60
2022-09-28T12:03:43.188Z,0.40
2022-09-28T12:05:52.026Z,0.60
2022-09-28T12:08:15.967Z,0.50
2022-09-28T12:10:51.743Z,0.90
2022-09-28T12:13:18.731Z,0.77
2022-09-28T12:15:26.621Z,1.02
2022-09-28T12:17:38.895Z,0.60
2022-09-28T12:19:53.399Z,0.90
2022-09-28T12:22:09.765Z,1.27
2022-09-28T12:24:18.820Z,0.70
2022-09-28T12:26:43.933Z,0.70
2022-09-28T12:28:49.319Z,1.48
2022-09-28T12:30:52.365Z,0.60
2022-09-28T12:33:00.162Z,0.80
2022-09-28T12:35:03.247Z,1.17
2022-09-28T12:37:18.500Z,0.90
2022-09-28T12:39:56.558Z,1.52
2022-09-28T12:42:05.323Z,0.70
2022-09-28T12:44:28.725Z,0.93
2022-09-28T12:46:56.678Z,0.75
2022-09-28T12:50:36.346Z,1.42
2022-09-28T12:52:00.224Z,0.90
2022-09-28T12:54:13.868Z,1.13
2022-09-28T12:56:34.428Z,2.08
2022-09-28T12:59:18.723Z,0.70
2022-09-28T13:01:54.383Z,0.80
2022-09-28T13:04:05.414Z,0.82
2022-09-28T13:06:10.007Z,0.98
2022-09-28T13:08:25.290Z,0.82
2022-09-28T13:10:35.112Z,0.90
2022-09-28T13:12:45.340Z,0.90
2022-09-28T13:15:05.566Z,1.05
2022-09-28T13:17:42.618Z,0.70
2022-09-28T13:19:57.748Z,0.85
2022-09-28T13:22:35.957Z,0.70
2022-09-28T13:24:44.142Z,0.88
2022-09-28T13:26:47.800Z,0.90
2022-09-28T13:28:54.603Z,0.70
2022-09-28T13:33:03.819Z,0.75
2022-09-28T13:35:06.300Z,0.80
2022-09-28T13:37:07.883Z,0.80
2022-09-28T13:39:34.532Z,0.93
2022-09-28T13:41:40.359Z,1.67
2022-09-28T13:44:05.737Z,0.80
2022-09-28T13:46:20.127Z,0.93
2022-09-28T13:48:44.340Z,0.80
2022-09-28T13:51:04.560Z,0.68
2022-09-28T13:53:28.224Z,2.20
2022-09-28T13:55:48.974Z,0.50
2022-09-28T13:58:04.414Z,1.70
2022-09-28T14:00:12.196Z,1.42
2022-09-28T14:02:23.158Z,1.20
2022-09-28T14:04:47.566Z,1.17
2022-09-28T14:07:16.640Z,0.85
2022-09-28T14:09:44.331Z,1.55
2022-09-28T14:11:59.436Z,0.55
2022-09-28T14:14:05.093Z,0.70
2022-09-28T14:16:19.334Z,0.73
2022-09-28T14:18:31.107Z,0.73
2022-09-28T14:20:35.300Z,0.70
2022-09-28T14:22:47.107Z,1.52
2022-09-28T14:25:20.733Z,0.85
2022-09-28T14:27:34.331Z,0.75
2022-09-28T14:29:38.150Z,0.70
2022-09-28T14:31:43.652Z,1.25
2022-09-28T14:33:56.748Z,0.98
2022-09-28T14:36:02.099Z,1.08
2022-09-28T14:38:35.029Z,0.60
2022-09-28T14:41:11.260Z,0.60
2022-09-28T14:43:37.328Z,5.05
2022-09-28T14:45:44.229Z,1.08
2022-09-28T14:48:19.286Z,1.13
2022-09-28T14:50:25.603Z,3.15
2022-09-28T14:52:47.576Z,4.07
2022-09-28T14:54:54.455Z,1.55
2022-09-28T14:57:12.483Z,5.13
2022-09-28T14:59:22.805Z,4.85
2022-09-28T15:01:25.881Z,0.98
2022-09-28T15:03:30.927Z,10.75
2022-09-28T15:05:42.488Z,5.15
2022-09-28T15:07:48.021Z,6.95
2022-09-28T15:09:51.959Z,3.80
2022-09-28T15:11:58.467Z,8.80
2022-09-28T15:14:08.204Z,8.30
2022-09-28T15:16:13.725Z,7.32
2022-09-28T15:18:38.548Z,2.10
2022-09-28T15:20:41.976Z,1.67
2022-09-28T15:22:48.736Z,2.72
2022-09-28T15:25:02.398Z,7.43
2022-09-28T15:27:15.600Z,1.95
2022-09-28T15:29:19.436Z,5.43
2022-09-28T15:31:26.932Z,4.88
2022-09-28T15:33:53.036Z,3.78
2022-09-28T15:36:07.308Z,6.13
2022-09-28T15:38:17.162Z,3.03
2022-09-28T15:40:31.557Z,4.82
2022-09-28T15:42:37.036Z,4.57
2022-09-28T15:44:42.908Z,4.55
2022-09-28T15:46:52.048Z,8.52
2022-09-28T15:48:57.195Z,3.72
2022-09-28T15:51:11.786Z,1.98
2022-09-28T15:53:18.623Z,5.00
2022-09-28T15:55:31.403Z,2.80
2022-09-28T15:57:40.218Z,8.10
2022-09-28T15:59:43.836Z,7.32
2022-09-28T16:01:45.942Z,8.32
2022-09-28T16:03:47.645Z,3.70
2022-09-28T16:05:50.721Z,7.60
2022-09-28T16:07:56.242Z,1.83
2022-09-28T16:10:12.185Z,5.75
2022-09-28T16:12:13.818Z,2.72
2022-09-28T16:14:20.946Z,3.67
2022-09-28T16:16:27.825Z,4.20
2022-09-28T16:18:31.044Z,3.95
2022-09-28T16:20:34.004Z,1.67
2022-09-28T16:22:35.641Z,1.55
2022-09-28T16:24:38.871Z,4.72
2022-09-28T16:26:40.518Z,11.93
2022-09-28T16:28:45.780Z,3.38
2022-09-28T16:31:05.554Z,6.15
2022-09-28T16:33:28.438Z,5.22
2022-09-28T16:35:32.987Z,9.65
2022-09-28T16:37:36.701Z,8.38
2022-09-28T16:39:38.958Z,4.40
2022-09-28T16:41:44.109Z,8.50
2022-09-28T16:43:46.258Z,11.30
2022-09-28T16:45:47.901Z,10.23
2022-09-28T16:47:54.558Z,5.10
2022-09-28T16:49:56.283Z,3.20
2022-09-28T16:51:57.869Z,5.65
2022-09-28T16:54:32.027Z,7.18
2022-09-28T16:56:36.114Z,9.35
2022-09-28T16:58:38.885Z,6.82
2022-09-28T17:00:43.456Z,4.25
2022-09-28T17:02:47.087Z,16.33
2022-09-28T17:04:48.871Z,3.88
2022-09-28T17:06:55.461Z,8.25
2022-09-28T17:08:58.585Z,5.07
2022-09-28T17:11:24.040Z,11.15
2022-09-28T17:13:33.820Z,18.08
2022-09-28T17:15:35.675Z,8.40
2022-09-28T17:17:38.366Z,8.70
2022-09-28T17:19:40.096Z,8.25
2022-09-28T17:21:41.806Z,11.40
2022-09-28T17:23:47.578Z,10.98
2022-09-28T17:25:49.321Z,16.25
2022-09-28T17:27:51.760Z,14.35
2022-09-28T17:29:53.354Z,5.35
2022-09-28T17:31:55.136Z,8.95
2022-09-28T17:33:56.853Z,10.18
2022-09-28T17:36:05.083Z,13.52
2022-09-28T17:38:06.851Z,7.93
2022-09-28T17:40:29.324Z,9.82
2022-09-28T17:42:30.967Z,6.50
2022-09-28T17:44:32.580Z,10.95
2022-09-28T17:46:37.250Z,5.30
2022-09-28T17:48:39.026Z,12.20
2022-09-28T17:50:45.614Z,3.30
2022-09-28T17:52:59.754Z,9.55
2022-09-28T17:55:01.364Z,24.45
2022-09-28T17:57:02.996Z,6.85
2022-09-28T17:59:12.582Z,10.23
2022-09-28T18:01:14.223Z,7.10
2022-09-28T18:03:23.962Z,8.70
2022-09-28T18:05:28.237Z,16.00
2022-09-28T18:07:31.047Z,9.23
2022-09-28T18:09:32.663Z,8.55
2022-09-28T18:11:35.174Z,5.63
2022-09-28T18:13:37.084Z,4.30
2022-09-28T18:15:38.800Z,7.13
2022-09-28T18:17:40.762Z,7.70
2022-09-28T18:19:42.345Z,8.35
2022-09-28T18:21:43.956Z,10.63
2022-09-28T18:23:45.593Z,19.05
2022-09-28T18:25:47.326Z,9.00
2022-09-28T18:27:48.977Z,10.70
2022-09-28T18:29:50.693Z,6.88
2022-09-28T18:31:52.444Z,8.38
2022-09-28T18:33:59.815Z,22.83
2022-09-28T18:36:01.791Z,11.95
2022-09-28T18:38:05.314Z,10.50
2022-09-28T18:40:09.193Z,12.70
2022-09-28T18:42:11.014Z,8.60
2022-09-28T18:44:12.619Z,12.40
2022-09-28T18:46:14.257Z,11.80
2022-09-28T18:48:16.123Z,7.63
2022-09-28T18:50:18.043Z,12.82
2022-09-28T18:52:19.681Z,12.52
2022-09-28T18:54:21.407Z,10.48
2022-09-28T18:56:23.064Z,7.78
2022-09-28T18:58:24.691Z,6.15
2022-09-28T19:00:26.338Z,10.95
2022-09-28T19:02:28.146Z,8.25
2022-09-28T19:04:30.174Z,17.85
2022-09-28T19:06:34.221Z,10.02
2022-09-28T19:08:36.349Z,5.88
2022-09-28T19:10:37.943Z,5.28
2022-09-28T19:12:39.556Z,8.68
2022-09-28T19:14:41.153Z,6.68
2022-09-28T19:16:44.630Z,5.18
2022-09-28T19:18:46.576Z,6.90
2022-09-28T19:20:48.169Z,7.22
2022-09-28T19:22:50.551Z,3.90
2022-09-28T19:24:52.223Z,5.60
2022-09-28T19:26:53.872Z,4.32
2022-09-28T19:28:56.674Z,5.25
2022-09-28T19:31:04.466Z,4.10
2022-09-28T19:33:06.071Z,3.40
2022-09-28T19:35:08.227Z,3.53
2022-09-28T19:37:09.817Z,3.80
2022-09-28T19:39:14.459Z,6.82
2022-09-28T19:41:43.914Z,7.60
2022-09-28T19:43:46.087Z,6.15
2022-09-28T19:45:52.224Z,3.85
2022-09-28T19:47:58.662Z,4.85
2022-09-28T19:50:00.947Z,3.90
2022-09-28T19:52:13.937Z,5.70
2022-09-28T19:54:18.031Z,6.70
2022-09-28T19:56:19.650Z,7.95
2022-09-28T19:58:22.855Z,3.28
2022-09-28T20:00:24.532Z,5.53
2022-09-28T20:02:26.222Z,3.47
2022-09-28T20:04:27.846Z,4.88
2022-09-28T20:06:31.263Z,3.53
2022-09-28T20:08:32.924Z,4.25
2022-09-28T20:10:34.664Z,4.15
2022-09-28T20:12:36.340Z,2.03
2022-09-28T20:14:40.303Z,2.65
2022-09-28T20:16:42.231Z,5.60
2022-09-28T20:18:50.047Z,4.65
2022-09-28T20:21:07.944Z,4.38
2022-09-28T20:23:09.663Z,3.38
2022-09-28T20:25:11.295Z,2.22
2022-09-28T20:27:12.889Z,3.00
2022-09-28T20:29:14.527Z,3.40
2022-09-28T20:31:20.395Z,4.07
2022-09-28T20:33:28.524Z,3.55
2022-09-28T20:35:33.205Z,3.85
2022-09-28T20:37:34.995Z,2.03
2022-09-28T20:39:37.900Z,2.50
2022-09-28T20:41:41.174Z,1.95
2022-09-28T20:43:42.800Z,4.47
2022-09-28T20:45:45.100Z,3.45
2022-09-28T20:47:46.725Z,3.38
2022-09-28T20:49:48.300Z,1.88
2022-09-28T20:51:49.936Z,4.03
2022-09-28T20:53:56.941Z,4.25
2022-09-28T20:56:12.896Z,1.40
2022-09-28T20:58:14.479Z,4.05
2022-09-28T21:00:16.164Z,1.80
2022-09-28T21:02:17.928Z,1.45
2022-09-28T21:04:19.738Z,1.48
2022-09-28T21:06:24.120Z,6.30
2022-09-28T21:08:25.761Z,2.03
2022-09-28T21:10:30.183Z,1.48
2022-09-28T21:12:34.107Z,1.60
2022-09-28T21:14:35.707Z,2.25
2022-09-28T21:16:37.702Z,2.28
2022-09-28T21:18:39.931Z,2.88
2022-09-28T21:20:46.386Z,3.67
2022-09-28T21:22:48.010Z,2.25
2022-09-28T21:24:49.600Z,4.03
2022-09-28T21:26:51.304Z,3.08
2022-09-28T21:28:53.814Z,2.40
2022-09-28T21:30:55.577Z,1.60
2022-09-28T21:32:58.018Z,1.80
2022-09-28T21:34:59.603Z,1.85
2022-09-28T21:37:01.247Z,1.40
2022-09-28T21:39:05.010Z,1.98
2022-09-28T21:41:10.055Z,2.72
2022-09-28T21:43:11.688Z,2.35
2022-09-28T21:45:13.352Z,2.08
2022-09-28T21:47:14.953Z,1.50
2022-09-28T21:49:16.595Z,3.03
2022-09-28T21:51:18.281Z,1.67
2022-09-28T21:53:19.904Z,1.52
2022-09-28T21:55:23.292Z,1.40
2022-09-28T21:57:24.877Z,2.72
2022-09-28T21:59:26.476Z,2.03
2022-09-28T22:01:28.995Z,1.60
2022-09-28T22:03:32.163Z,1.58
2022-09-28T22:05:33.880Z,1.00
2022-09-28T22:07:35.575Z,2.25
2022-09-28T22:09:37.164Z,1.58
2022-09-28T22:11:38.842Z,1.95
2022-09-28T22:13:42.608Z,1.10
2022-09-28T22:15:44.235Z,3.90
2022-09-28T22:17:45.880Z,2.58
2022-09-28T22:19:47.504Z,1.67
2022-09-28T22:21:49.100Z,1.05
2022-09-28T22:23:51.191Z,1.75
2022-09-28T22:26:01.579Z,1.17
2022-09-28T22:28:03.281Z,5.05
2022-09-28T22:30:05.405Z,1.13
2022-09-28T22:32:07.550Z,4.28
2022-09-28T22:34:09.818Z,1.67
2022-09-28T22:36:11.653Z,2.03
2022-09-28T22:38:13.288Z,1.33
2022-09-28T22:40:14.975Z,2.38
2022-09-28T22:42:17.235Z,2.80
2022-09-28T22:44:19.822Z,2.42
2022-09-28T22:46:27.483Z,1.23
2022-09-28T22:48:29.542Z,1.70
2022-09-28T22:50:31.480Z,1.00
2022-09-28T22:52:33.076Z,2.15
2022-09-28T22:54:34.942Z,2.20
2022-09-28T22:56:36.549Z,1.38
2022-09-28T22:58:38.970Z,1.38
2022-09-28T23:00:40.737Z,1.38
2022-09-28T23:02:42.393Z,1.55
2022-09-28T23:04:44.031Z,2.03
2022-09-28T23:06:45.709Z,1.30
2022-09-28T23:08:48.296Z,1.70
2022-09-28T23:10:51.038Z,1.63
2022-09-28T23:12:56.781Z,1.45
2022-09-28T23:14:58.440Z,1.92
2022-09-28T23:17:00.235Z,1.30
2022-09-28T23:19:01.879Z,1.75
2022-09-28T23:21:06.741Z,1.05
2022-09-28T23:23:08.343Z,1.17
2022-09-28T23:25:09.939Z,1.38
2022-09-28T23:27:11.555Z,1.45
2022-09-28T23:29:13.334Z,1.40
2022-09-28T23:31:26.571Z,2.28
2022-09-28T23:33:28.257Z,1.52
2022-09-28T23:35:29.862Z,1.42
2022-09-28T23:37:31.468Z,1.75
2022-09-28T23:39:33.073Z,1.20
2022-09-28T23:41:34.685Z,1.98
2022-09-28T23:43:36.658Z,9.10
2022-09-28T23:45:38.262Z,1.20
2022-09-28T23:47:39.866Z,1.55
2022-09-28T23:49:41.527Z,1.35
2022-09-28T23:51:43.116Z,1.88
2022-09-28T23:53:45.096Z,1.23
2022-09-28T23:55:46.730Z,1.63
2022-09-28T23:57:48.319Z,1.40
2022-09-28T23:59:49.963Z,1.55
